createdAt,value
2022-08-10T00:00:55.690Z,100.00
2022-08-10T00:03:24.716Z,100.00
2022-08-10T00:05:54.781Z,100.00
2022-08-10T00:08:24.948Z,100.00
2022-08-10T00:10:53.022Z,100.00
2022-08-10T00:13:20.858Z,100.00
2022-08-10T00:15:53.637Z,100.00
2022-08-10T00:18:35.223Z,100.00
2022-08-10T00:21:04.802Z,100.00
2022-08-10T00:23:32.442Z,100.00
2022-08-10T00:26:00.317Z,100.00
2022-08-10T00:28:27.947Z,100.00
2022-08-10T00:30:55.595Z,100.00
2022-08-10T00:33:24.728Z,100.00
2022-08-10T00:35:52.780Z,100.00
2022-08-10T00:38:20.803Z,100.00
2022-08-10T00:40:48.446Z,100.00
2022-08-10T00:43:23.599Z,100.00
2022-08-10T00:45:59.859Z,100.00
2022-08-10T00:48:30.109Z,100.00
2022-08-10T00:50:58.815Z,100.00
2022-08-10T00:53:26.535Z,100.00
2022-08-10T00:57:12.603Z,100.00
2022-08-10T00:58:41.803Z,100.00
2022-08-10T01:01:23.505Z,100.00
2022-08-10T01:04:36.368Z,100.00
2022-08-10T01:06:51.695Z,100.00
2022-08-10T01:09:24.245Z,100.00
2022-08-10T01:12:40.232Z,100.00
2022-08-10T01:14:51.498Z,100.00
2022-08-10T01:17:23.966Z,100.00
2022-08-10T01:20:30.268Z,100.00
2022-08-10T01:23:26.922Z,100.00
2022-08-10T01:26:10.506Z,100.00
2022-08-10T01:28:47.503Z,100.00
2022-08-10T01:31:21.413Z,100.00
2022-08-10T01:33:59.089Z,100.00
2022-08-10T01:36:32.234Z,100.00
2022-08-10T01:39:03.778Z,100.00
2022-08-10T01:41:46.143Z,100.00
2022-08-10T01:44:16.563Z,100.00
2022-08-10T01:46:56.918Z,100.00
2022-08-10T01:49:25.072Z,100.00
2022-08-10T01:51:54.521Z,100.00
2022-08-10T01:54:24.127Z,100.00
2022-08-10T01:56:54.323Z,100.00
2022-08-10T01:59:24.955Z,100.00
2022-08-10T02:01:57.169Z,100.00
2022-08-10T02:04:26.564Z,100.00
2022-08-10T02:06:55.462Z,100.00
2022-08-10T02:09:26.479Z,100.00
2022-08-10T02:12:07.336Z,100.00
2022-08-10T02:14:38.410Z,100.00
2022-08-10T02:17:58.232Z,100.00
2022-08-10T02:19:59.998Z,100.00
2022-08-10T02:22:38.260Z,100.00
2022-08-10T02:25:08.571Z,100.00
2022-08-10T02:27:37.446Z,100.00
2022-08-10T02:30:07.052Z,100.00
2022-08-10T02:32:38.483Z,100.00
2022-08-10T02:35:13.976Z,100.00
2022-08-10T02:37:51.442Z,100.00
2022-08-10T02:45:02.153Z,100.00
2022-08-10T02:45:21.688Z,100.00
2022-08-10T02:46:03.328Z,100.00
2022-08-10T02:48:38.910Z,100.00
2022-08-10T02:51:11.319Z,100.00
2022-08-10T02:53:54.862Z,100.00
2022-08-10T02:56:29.844Z,100.00
2022-08-10T02:59:00.300Z,100.00
2022-08-10T03:01:32.771Z,100.00
2022-08-10T03:04:04.229Z,100.00
2022-08-10T03:06:35.978Z,100.00
2022-08-10T03:09:05.425Z,100.00
2022-08-10T03:12:37.428Z,100.00
2022-08-10T03:14:23.084Z,100.00
2022-08-10T03:16:51.508Z,100.00
2022-08-10T03:20:33.337Z,100.00
2022-08-10T03:22:09.735Z,100.00
2022-08-10T03:24:37.747Z,100.00
2022-08-10T03:27:06.336Z,100.00
2022-08-10T03:30:29.866Z,100.00
2022-08-10T03:32:23.124Z,100.00
2022-08-10T03:34:52.627Z,100.00
2022-08-10T03:37:20.458Z,100.00
2022-08-10T03:39:48.218Z,100.00
2022-08-10T03:42:16.400Z,100.00
2022-08-10T03:44:48.657Z,100.00
2022-08-10T03:47:18.857Z,100.00
2022-08-10T03:49:49.028Z,100.00
2022-08-10T03:52:19.284Z,100.00
2022-08-10T03:54:51.468Z,100.00
2022-08-10T03:57:19.426Z,100.00
2022-08-10T03:59:47.522Z,100.00
2022-08-10T04:02:46.582Z,100.00
2022-08-10T04:05:03.322Z,100.00
2022-08-10T04:07:32.392Z,100.00
2022-08-10T04:09:59.995Z,100.00
2022-08-10T04:12:27.728Z,100.00
2022-08-10T04:14:55.380Z,100.00
2022-08-10T04:17:57.459Z,100.00
2022-08-10T04:20:18.000Z,100.00
2022-08-10T04:22:49.772Z,100.00
2022-08-10T04:25:17.775Z,100.00
2022-08-10T04:27:46.435Z,100.00
2022-08-10T04:30:14.235Z,100.00
2022-08-10T04:32:42.451Z,100.00
2022-08-10T04:35:11.540Z,100.00
2022-08-10T04:37:46.916Z,100.00
2022-08-10T04:40:28.891Z,100.00
2022-08-10T04:43:02.252Z,100.00
2022-08-10T04:45:49.043Z,100.00
2022-08-10T04:48:40.781Z,100.00
2022-08-10T04:51:10.956Z,100.00
2022-08-10T04:54:04.441Z,100.00
2022-08-10T04:56:34.731Z,100.00
2022-08-10T04:59:02.361Z,100.00
2022-08-10T05:02:21.954Z,100.00
2022-08-10T05:04:35.447Z,100.00
2022-08-10T05:07:06.880Z,100.00
2022-08-10T05:10:01.082Z,100.00
2022-08-10T05:12:23.792Z,100.00
2022-08-10T05:14:52.175Z,100.00
2022-08-10T05:17:20.853Z,100.00
2022-08-10T05:20:03.454Z,100.00
2022-08-10T05:22:37.309Z,100.00
2022-08-10T05:25:06.846Z,100.00
2022-08-10T05:27:35.888Z,100.00
2022-08-10T05:30:04.471Z,100.00
2022-08-10T05:32:34.441Z,100.00
2022-08-10T05:35:20.645Z,100.00
2022-08-10T05:38:11.790Z,100.00
2022-08-10T05:40:37.624Z,100.00
2022-08-10T05:43:06.691Z,100.00
2022-08-10T05:45:34.333Z,100.00
2022-08-10T05:48:41.801Z,100.00
2022-08-10T05:51:09.859Z,100.00
2022-08-10T05:53:59.843Z,100.00
2022-08-10T05:56:26.330Z,100.00
2022-08-10T05:58:55.448Z,100.00
2022-08-10T06:01:25.002Z,100.00
2022-08-10T06:03:58.439Z,100.00
2022-08-10T06:06:27.152Z,100.00
2022-08-10T06:08:55.059Z,97.78
2022-08-10T06:12:26.937Z,88.33
2022-08-10T06:14:31.351Z,85.84
2022-08-10T06:17:01.073Z,83.04
2022-08-10T06:19:29.213Z,76.64
2022-08-10T06:22:01.264Z,73.87
2022-08-10T06:24:31.105Z,72.72
2022-08-10T06:26:59.079Z,74.78
2022-08-10T06:29:29.253Z,76.94
2022-08-10T06:31:57.004Z,77.48
2022-08-10T06:34:28.446Z,76.21
2022-08-10T06:36:59.478Z,67.71
2022-08-10T06:39:36.310Z,67.76
2022-08-10T06:42:15.865Z,71.53
2022-08-10T06:44:54.483Z,84.18
2022-08-10T06:47:25.472Z,86.38
2022-08-10T06:49:59.874Z,78.60
2022-08-10T06:52:29.761Z,69.27
2022-08-10T06:54:58.568Z,70.28
2022-08-10T06:57:29.440Z,72.83
2022-08-10T07:00:01.046Z,79.26
2022-08-10T07:02:36.846Z,100.00
2022-08-10T07:05:06.615Z,100.00
2022-08-10T07:07:37.562Z,100.00
2022-08-10T07:10:06.051Z,100.00
2022-08-10T07:12:35.439Z,100.00
2022-08-10T07:15:05.579Z,100.00
2022-08-10T07:17:38.796Z,100.00
2022-08-10T07:20:09.722Z,100.00
2022-08-10T07:23:01.413Z,100.00
2022-08-10T07:25:27.471Z,100.00
2022-08-10T07:27:58.781Z,100.00
2022-08-10T07:30:31.464Z,100.00
2022-08-10T07:33:00.174Z,100.00
2022-08-10T07:35:32.056Z,100.00
2022-08-10T07:38:05.150Z,100.00
2022-08-10T07:40:33.937Z,100.00
2022-08-10T07:43:02.532Z,100.00
2022-08-10T07:45:33.143Z,100.00
2022-08-10T07:48:07.163Z,100.00
2022-08-10T07:50:37.722Z,100.00
2022-08-10T07:53:05.973Z,100.00
2022-08-10T07:56:01.869Z,100.00
2022-08-10T07:58:23.127Z,100.00
2022-08-10T08:00:53.392Z,100.00
2022-08-10T08:03:22.415Z,100.00
2022-08-10T08:05:57.657Z,100.00
2022-08-10T08:08:31.834Z,100.00
2022-08-10T08:11:00.020Z,100.00
2022-08-10T08:13:27.916Z,100.00
2022-08-10T08:16:18.225Z,100.00
2022-08-10T08:19:03.943Z,100.00
2022-08-10T08:24:10.565Z,100.00
2022-08-10T08:24:32.644Z,100.00
2022-08-10T08:27:02.373Z,100.00
2022-08-10T08:29:30.600Z,100.00
2022-08-10T08:32:02.455Z,100.00
2022-08-10T08:34:31.468Z,100.00
2022-08-10T08:37:00.672Z,98.41
2022-08-10T08:39:28.384Z,93.07
2022-08-10T08:42:09.663Z,94.44
2022-08-10T08:44:49.141Z,91.48
2022-08-10T08:48:04.609Z,92.79
2022-08-10T08:50:35.636Z,91.38
2022-08-10T08:53:21.585Z,91.47
2022-08-10T08:56:06.395Z,89.51
2022-08-10T08:58:53.708Z,87.57
2022-08-10T09:01:38.290Z,88.64
2022-08-10T09:04:46.828Z,84.10
2022-08-10T09:08:00.300Z,80.24
2022-08-10T09:10:39.916Z,74.94
2022-08-10T09:13:11.575Z,73.79
2022-08-10T09:15:42.266Z,73.95
2022-08-10T09:18:15.022Z,76.64
2022-08-10T09:20:49.165Z,77.67
2022-08-10T09:24:05.267Z,76.19
2022-08-10T09:26:15.912Z,73.98
2022-08-10T09:28:44.265Z,72.95
2022-08-10T09:31:28.770Z,70.29
2022-08-10T09:36:28.094Z,66.68
2022-08-10T09:37:02.108Z,68.83
2022-08-10T09:40:06.965Z,67.90
2022-08-10T09:42:29.956Z,64.28
2022-08-10T09:45:05.223Z,63.60
2022-08-10T09:48:00.844Z,62.06
2022-08-10T09:50:50.082Z,60.55
2022-08-10T09:53:25.770Z,64.44
2022-08-10T09:56:19.070Z,64.08
2022-08-10T09:58:51.712Z,61.32
2022-08-10T10:02:02.417Z,57.75
2022-08-10T10:04:40.465Z,56.51
2022-08-10T10:07:10.840Z,57.75
2022-08-10T10:09:46.866Z,56.76
2022-08-10T10:12:22.605Z,58.87
2022-08-10T10:15:24.462Z,55.85
2022-08-10T10:18:15.268Z,56.09
2022-08-10T10:20:47.420Z,55.98
2022-08-10T10:23:19.254Z,56.48
2022-08-10T10:25:55.438Z,54.51
2022-08-10T10:29:11.341Z,53.74
2022-08-10T10:31:28.875Z,50.83
2022-08-10T10:34:15.519Z,51.56
2022-08-10T10:36:45.221Z,50.62
2022-08-10T10:39:14.890Z,47.56
2022-08-10T10:41:55.896Z,46.94
2022-08-10T10:44:42.323Z,46.78
2022-08-10T10:47:29.508Z,47.65
2022-08-10T10:50:05.255Z,44.66
2022-08-10T10:52:41.999Z,44.21
2022-08-10T10:55:16.398Z,42.83
2022-08-10T10:58:00.968Z,43.76
2022-08-10T11:00:38.573Z,42.41
2022-08-10T11:03:35.812Z,42.33
2022-08-10T11:06:11.387Z,42.61
2022-08-10T11:08:44.116Z,43.52
2022-08-10T11:12:01.184Z,43.02
2022-08-10T11:14:25.129Z,41.75
2022-08-10T11:17:01.704Z,42.47
2022-08-10T11:20:02.036Z,41.03
2022-08-10T11:22:31.431Z,41.25
2022-08-10T11:25:11.175Z,41.33
2022-08-10T11:27:44.075Z,38.71
2022-08-10T11:30:15.044Z,38.48
2022-08-10T11:32:48.330Z,36.79
2022-08-10T11:35:23.805Z,34.17
2022-08-10T11:38:34.380Z,35.60
2022-08-10T11:40:52.216Z,35.89
2022-08-10T11:43:22.603Z,35.63
2022-08-10T11:45:56.267Z,38.04
2022-08-10T11:48:54.289Z,37.97
2022-08-10T11:51:26.492Z,37.71
2022-08-10T11:53:58.993Z,37.84
2022-08-10T11:56:30.838Z,38.03
2022-08-10T11:59:17.036Z,37.07
2022-08-10T12:01:48.187Z,36.41
2022-08-10T12:04:16.476Z,35.87
2022-08-10T12:07:00.320Z,35.55
2022-08-10T12:10:10.417Z,35.70
2022-08-10T12:12:17.280Z,35.45
2022-08-10T12:14:49.703Z,35.64
2022-08-10T12:17:23.312Z,35.92
2022-08-10T12:20:02.635Z,35.70
2022-08-10T12:22:34.682Z,34.99
2022-08-10T12:25:05.494Z,34.84
2022-08-10T12:27:39.862Z,33.62
2022-08-10T12:30:09.572Z,33.09
2022-08-10T12:32:43.320Z,32.90
2022-08-10T12:35:21.989Z,33.08
2022-08-10T12:38:04.133Z,33.25
2022-08-10T12:40:36.435Z,32.59
2022-08-10T12:43:12.957Z,32.88
2022-08-10T12:46:06.739Z,30.97
2022-08-10T12:48:38.708Z,30.94
2022-08-10T12:51:09.106Z,30.97
2022-08-10T12:53:42.908Z,31.00
2022-08-10T12:56:10.814Z,31.75
2022-08-10T12:58:59.274Z,32.24
2022-08-10T13:01:30.449Z,32.69
2022-08-10T13:04:26.799Z,31.48
2022-08-10T13:06:54.647Z,31.50
2022-08-10T13:09:23.061Z,31.60
2022-08-10T13:12:36.231Z,32.10
2022-08-10T13:14:49.287Z,31.75
2022-08-10T13:17:23.157Z,32.81
2022-08-10T13:19:55.085Z,32.70
2022-08-10T13:22:26.358Z,31.54
2022-08-10T13:24:56.331Z,31.81
2022-08-10T13:28:01.389Z,31.66
2022-08-10T13:30:15.560Z,30.79
2022-08-10T13:32:49.344Z,31.88
2022-08-10T13:35:58.721Z,31.04
2022-08-10T13:38:30.787Z,31.68
2022-08-10T13:40:58.884Z,30.70
2022-08-10T13:43:27.165Z,30.88
2022-08-10T13:45:56.018Z,32.09
2022-08-10T13:48:24.661Z,30.38
2022-08-10T13:50:58.261Z,29.83
2022-08-10T13:53:31.155Z,30.14
2022-08-10T13:55:59.102Z,30.35
2022-08-10T13:58:30.089Z,30.19
2022-08-10T14:00:59.247Z,30.59
2022-08-10T14:03:27.201Z,30.27
2022-08-10T14:05:57.411Z,29.76
2022-08-10T14:08:26.826Z,29.16
2022-08-10T14:11:05.396Z,29.74
2022-08-10T14:13:43.917Z,29.71
2022-08-10T14:16:12.302Z,29.92
2022-08-10T14:18:42.108Z,29.07
2022-08-10T14:21:11.593Z,29.49
2022-08-10T14:23:48.611Z,29.13
2022-08-10T14:26:23.120Z,29.09
2022-08-10T14:28:55.618Z,29.64
2022-08-10T14:31:25.000Z,29.58
2022-08-10T14:33:55.569Z,29.47
2022-08-10T14:36:31.827Z,28.95
2022-08-10T14:38:59.844Z,29.28
2022-08-10T14:42:03.073Z,29.85
2022-08-10T14:44:18.288Z,28.98
2022-08-10T14:46:51.546Z,29.71
2022-08-10T14:49:26.329Z,29.07
2022-08-10T14:52:00.569Z,29.06
2022-08-10T14:54:29.913Z,29.42
2022-08-10T14:56:58.710Z,28.73
2022-08-10T14:59:45.931Z,28.25
2022-08-10T15:02:40.805Z,27.82
2022-08-10T15:05:09.127Z,28.32
2022-08-10T15:07:38.942Z,28.84
2022-08-10T15:10:08.203Z,28.74
2022-08-10T15:12:36.977Z,28.75
2022-08-10T15:15:08.571Z,29.04
2022-08-10T15:17:39.477Z,28.54
2022-08-10T15:20:14.713Z,29.25
2022-08-10T15:22:47.469Z,30.01
2022-08-10T15:25:24.481Z,29.19
2022-08-10T15:27:56.121Z,28.99
2022-08-10T15:30:31.421Z,27.66
2022-08-10T15:33:21.478Z,27.64
2022-08-10T15:36:24.949Z,27.84
2022-08-10T15:38:59.761Z,28.66
2022-08-10T15:41:57.826Z,28.70
2022-08-10T15:44:36.540Z,28.63
2022-08-10T15:47:07.116Z,29.04
2022-08-10T15:49:37.564Z,29.30
2022-08-10T15:52:39.948Z,29.84
2022-08-10T15:55:44.143Z,29.64
2022-08-10T15:58:05.913Z,29.59
2022-08-10T16:00:34.825Z,29.89
2022-08-10T16:03:08.825Z,30.77
2022-08-10T16:06:02.636Z,30.70
2022-08-10T16:08:37.607Z,30.69
2022-08-10T16:11:37.916Z,29.33
2022-08-10T16:14:16.582Z,28.50
2022-08-10T16:16:48.175Z,28.86
2022-08-10T16:19:24.010Z,29.11
2022-08-10T16:21:57.154Z,30.06
2022-08-10T16:24:25.743Z,30.08
2022-08-10T16:26:55.596Z,29.98
2022-08-10T16:29:25.546Z,30.24
2022-08-10T16:31:55.907Z,29.84
2022-08-10T16:34:24.783Z,29.20
2022-08-10T16:36:54.866Z,29.58
2022-08-10T16:39:56.959Z,30.10
2022-08-10T16:42:19.115Z,29.95
2022-08-10T16:44:52.477Z,30.52
2022-08-10T16:47:27.364Z,30.46
2022-08-10T16:49:56.464Z,30.42
2022-08-10T16:52:25.031Z,30.87
2022-08-10T16:54:53.920Z,30.09
2022-08-10T16:57:24.196Z,29.81
2022-08-10T16:59:54.941Z,30.40
2022-08-10T17:02:24.279Z,30.30
2022-08-10T17:04:52.943Z,30.53
2022-08-10T17:07:30.650Z,30.21
2022-08-10T17:10:07.567Z,30.11
2022-08-10T17:12:40.293Z,29.97
2022-08-10T17:15:11.730Z,29.47
2022-08-10T17:17:46.263Z,29.62
2022-08-10T17:20:30.578Z,30.38
2022-08-10T17:23:02.625Z,30.44
2022-08-10T17:25:48.709Z,30.43
2022-08-10T17:28:32.977Z,31.31
2022-08-10T17:31:23.518Z,30.73
2022-08-10T17:33:57.034Z,31.00
2022-08-10T17:36:26.279Z,31.18
2022-08-10T17:38:54.100Z,31.05
2022-08-10T17:41:25.247Z,31.87
2022-08-10T17:44:02.571Z,31.77
2022-08-10T17:46:33.646Z,31.90
2022-08-10T17:49:06.676Z,32.80
2022-08-10T17:51:35.037Z,32.51
2022-08-10T17:54:06.929Z,33.32
2022-08-10T17:56:35.664Z,33.29
2022-08-10T17:59:17.278Z,32.65
2022-08-10T18:02:01.276Z,32.88
2022-08-10T18:04:41.395Z,33.36
2022-08-10T18:07:11.400Z,33.80
2022-08-10T18:09:41.716Z,33.72
2022-08-10T18:12:18.375Z,34.15
2022-08-10T18:14:48.579Z,34.25
2022-08-10T18:17:19.575Z,34.12
2022-08-10T18:19:48.396Z,33.80
2022-08-10T18:22:17.159Z,33.98
2022-08-10T18:24:45.454Z,34.21
2022-08-10T18:27:14.439Z,33.57
2022-08-10T18:29:45.166Z,33.20
2022-08-10T18:32:15.803Z,33.66
2022-08-10T18:34:44.048Z,34.59
2022-08-10T18:37:20.753Z,33.51
2022-08-10T18:39:50.011Z,34.62
2022-08-10T18:42:20.997Z,35.12
2022-08-10T18:44:52.964Z,35.57
2022-08-10T18:47:30.226Z,36.14
2022-08-10T18:50:01.128Z,36.13
2022-08-10T18:52:31.872Z,36.91
2022-08-10T18:55:14.294Z,37.23
2022-08-10T18:57:51.871Z,37.53
2022-08-10T19:00:20.298Z,38.00
2022-08-10T19:03:12.258Z,38.50
2022-08-10T19:05:58.587Z,38.45
2022-08-10T19:08:49.120Z,38.92
2022-08-10T19:11:24.532Z,39.38
2022-08-10T19:13:59.976Z,40.48
2022-08-10T19:16:38.836Z,41.11
2022-08-10T19:19:26.923Z,42.10
2022-08-10T19:21:59.161Z,44.08
2022-08-10T19:24:29.176Z,43.95
2022-08-10T19:27:03.579Z,44.24
2022-08-10T19:30:08.342Z,44.50
2022-08-10T19:32:30.395Z,47.14
2022-08-10T19:35:04.642Z,46.60
2022-08-10T19:37:38.159Z,50.17
2022-08-10T19:40:15.855Z,50.43
2022-08-10T19:42:49.731Z,51.33
2022-08-10T19:45:59.128Z,50.24
2022-08-10T19:48:13.133Z,51.40
2022-08-10T19:50:45.918Z,52.36
2022-08-10T19:53:24.966Z,52.55
2022-08-10T19:56:01.906Z,53.57
2022-08-10T19:58:49.624Z,52.94
2022-08-10T20:01:18.117Z,52.27
2022-08-10T20:03:50.345Z,51.59
2022-08-10T20:06:23.000Z,53.01
2022-08-10T20:08:56.541Z,51.91
2022-08-10T20:11:44.835Z,50.89
2022-08-10T20:14:22.211Z,51.62
2022-08-10T20:16:52.597Z,50.88
2022-08-10T20:19:54.062Z,50.85
2022-08-10T20:22:29.327Z,52.07
2022-08-10T20:25:01.534Z,53.00
2022-08-10T20:28:06.774Z,53.69
2022-08-10T20:30:22.872Z,54.25
2022-08-10T20:32:54.576Z,57.18
2022-08-10T20:35:26.436Z,54.79
2022-08-10T20:38:03.576Z,54.79
2022-08-10T20:40:40.374Z,54.36
2022-08-10T20:43:17.002Z,55.15
2022-08-10T20:46:07.414Z,55.41
2022-08-10T20:48:39.187Z,56.64
2022-08-10T20:51:09.604Z,57.19
2022-08-10T20:53:43.621Z,57.92
2022-08-10T20:56:16.526Z,59.14
2022-08-10T20:58:59.734Z,61.86
2022-08-10T21:02:07.330Z,64.94
2022-08-10T21:04:44.939Z,68.26
2022-08-10T21:07:50.557Z,71.52
2022-08-10T21:10:31.828Z,73.61
2022-08-10T21:13:10.401Z,76.64
2022-08-10T21:15:59.445Z,78.31
2022-08-10T21:18:45.056Z,80.81
2022-08-10T21:21:37.733Z,83.76
2022-08-10T21:24:13.535Z,85.78
2022-08-10T21:26:51.221Z,88.57
2022-08-10T21:29:39.809Z,91.82
2022-08-10T21:32:18.460Z,94.36
2022-08-10T21:35:01.056Z,96.28
2022-08-10T21:37:39.732Z,98.77
2022-08-10T21:40:34.656Z,100.00
2022-08-10T21:43:45.937Z,100.00
2022-08-10T21:46:38.601Z,100.00
2022-08-10T21:49:53.142Z,100.00
2022-08-10T21:52:43.260Z,100.00
2022-08-10T21:55:56.963Z,100.00
2022-08-10T21:58:49.350Z,100.00
2022-08-10T22:01:44.235Z,100.00
2022-08-10T22:04:29.691Z,100.00
2022-08-10T22:07:18.111Z,100.00
2022-08-10T22:10:07.391Z,100.00
2022-08-10T22:12:57.087Z,100.00
2022-08-10T22:16:10.096Z,100.00
2022-08-10T22:19:01.493Z,100.00
2022-08-10T22:21:58.915Z,100.00
2022-08-10T22:24:51.296Z,100.00
2022-08-10T22:27:48.128Z,100.00
2022-08-10T22:30:35.029Z,100.00
2022-08-10T22:33:35.658Z,100.00
2022-08-10T22:36:43.779Z,100.00
2022-08-10T22:40:12.562Z,100.00
2022-08-10T22:42:58.785Z,100.00
2022-08-10T22:45:53.978Z,100.00
2022-08-10T22:48:40.534Z,100.00
2022-08-10T22:51:12.440Z,100.00
2022-08-10T22:54:00.734Z,100.00
2022-08-10T22:56:46.023Z,100.00
2022-08-10T22:59:14.447Z,100.00
2022-08-10T23:02:08.149Z,100.00
2022-08-10T23:04:44.745Z,100.00
2022-08-10T23:07:20.496Z,100.00
2022-08-10T23:09:52.873Z,100.00
2022-08-10T23:12:24.965Z,100.00
2022-08-10T23:15:13.520Z,100.00
2022-08-10T23:18:00.656Z,100.00
2022-08-10T23:20:31.507Z,100.00
2022-08-10T23:23:08.934Z,100.00
2022-08-10T23:25:43.764Z,100.00
2022-08-10T23:28:39.364Z,100.00
2022-08-10T23:31:14.442Z,100.00
2022-08-10T23:33:42.500Z,100.00
2022-08-10T23:36:33.955Z,100.00
2022-08-10T23:39:26.770Z,100.00
2022-08-10T23:41:55.736Z,100.00
2022-08-10T23:44:23.680Z,100.00
2022-08-10T23:46:53.459Z,100.00
2022-08-10T23:49:21.151Z,100.00
2022-08-10T23:51:54.920Z,100.00
2022-08-10T23:54:25.190Z,100.00
2022-08-10T23:57:00.909Z,100.00
2022-08-10T23:59:31.637Z,100.00
